Time;durP1;ratioP1;P1;durP2;ratioP2;P2;SDS_P1;SDS_P2;PMS_P1;PMS_P2;Temp;Humidity;BMP_temperature;BMP_pressure;BME280_temperature;BME280_humidity;BME280_pressure;Samples;Min_cycle;Max_cycle;Signal;HPM_P1;HPM_P2
2021/03/05 00:04:03;;;;;;;5.50;4.70;;;;;;;;;;5033705;28;20419;-72
2021/03/05 00:06:29;;;;;;;6.00;4.80;;;;;;;;;;5033840;28;20486;-73
2021/03/05 00:08:55;;;;;;;7.07;5.00;;;;;;;;;;5033684;28;20416;-72
2021/03/05 00:11:21;;;;;;;5.80;4.87;;;;;;;;;;5033411;28;20424;-72
2021/03/05 00:13:47;;;;;;;6.67;5.00;;;;;;;;;;5015624;28;20428;-72
2021/03/05 00:19:16;;;;;;;6.07;5.47;;;;;;;;;;5033436;28;20426;-72
2021/03/05 00:21:42;;;;;;;7.33;5.70;;;;;;;;;;5015562;28;20435;-72
2021/03/05 00:24:08;;;;;;;5.90;5.27;;;;;;;;;;5034469;28;20495;-74
2021/03/05 00:26:34;;;;;;;12.17;9.50;;;;;;;;;;5036451;28;20661;-74
2021/03/05 00:29:00;;;;;;;16.60;11.47;;;;;;;;;;5033688;28;20452;-75
2021/03/05 00:34:30;;;;;;;14.95;11.70;;;;;;;;;;5032839;28;20485;-75
2021/03/05 00:36:56;;;;;;;13.70;10.93;;;;;;;;;;5033084;28;20169;-76
2021/03/05 00:39:22;;;;;;;15.17;12.13;;;;;;;;;;5033087;28;20929;-76
2021/03/05 00:41:48;;;;;;;15.37;12.97;;;;;;;;;;5033006;28;20425;-74
2021/03/05 00:44:14;;;;;;;13.90;11.97;;;;;;;;;;5033270;28;20419;-73
2021/03/05 00:46:40;;;;;;;15.97;13.90;;;;;;;;;;5032918;28;20534;-77
2021/03/05 00:49:06;;;;;;;17.40;13.30;;;;;;;;;;5033328;28;20478;-75
2021/03/05 00:51:32;;;;;;;14.93;12.47;;;;;;;;;;5033351;28;20427;-75
2021/03/05 00:53:58;;;;;;;17.93;13.77;;;;;;;;;;5032711;28;20755;-75
2021/03/05 00:56:24;;;;;;;17.80;13.77;;;;;;;;;;5032441;28;20531;-73
2021/03/05 00:58:50;;;;;;;17.00;12.77;;;;;;;;;;5032762;28;20256;-73
2021/03/05 01:04:19;;;;;;;13.00;10.75;;;;;;;;;;5032615;28;20928;-73
2021/03/05 01:06:45;;;;;;;14.80;11.80;;;;;;;;;;5032560;28;20611;-76
2021/03/05 01:09:11;;;;;;;12.63;11.27;;;;;;;;;;5032742;28;20168;-75
2021/03/05 01:11:37;;;;;;;18.10;12.80;;;;;;;;;;5032291;28;20489;-72
2021/03/05 01:14:03;;;;;;;15.87;12.10;;;;;;;;;;5032567;28;20901;-72
2021/03/05 01:19:33;;;;;;;15.02;11.75;;;;;;;;;;5032799;28;20197;-72
2021/03/05 01:21:59;;;;;;;18.48;12.48;;;;;;;;;;5032480;28;20178;-73
2021/03/05 01:24:25;;;;;;;16.70;13.30;;;;;;;;;;5032620;28;20253;-72
2021/03/05 01:26:51;;;;;;;15.67;12.17;;;;;;;;;;5032309;28;20431;-74
2021/03/05 01:35:09;;;;;;;20.60;15.25;;;;;;;;;;5031689;28;20317;-75
2021/03/05 01:37:35;;;;;;;25.13;15.80;;;;;;;;;;5032318;28;20172;-72
2021/03/05 01:40:01;;;;;;;25.90;16.70;;;;;;;;;;5032449;28;20182;-73
2021/03/05 01:42:27;;;;;;;25.23;15.10;;;;;;;;;;5032056;28;20462;-74
2021/03/05 01:44:53;;;;;;;24.60;15.50;;;;;;;;;;5035754;28;20211;-75
2021/03/05 01:47:19;;;;;;;23.10;15.43;;;;;;;;;;5036155;28;20428;-73
2021/03/05 01:49:44;;;;;;;23.80;16.57;;;;;;;;;;5036570;28;20469;-73
2021/03/05 01:52:10;;;;;;;23.80;16.07;;;;;;;;;;5036155;28;20445;-72
2021/03/05 01:54:37;;;;;;;23.33;15.10;;;;;;;;;;5036211;28;20495;-73
2021/03/05 02:00:10;;;;;;;21.88;14.43;;;;;;;;;;5036327;28;20228;-75
2021/03/05 02:02:36;;;;;;;17.00;12.05;;;;;;;;;;5035906;28;20169;-72
2021/03/05 02:05:02;;;;;;;17.33;12.57;;;;;;;;;;5036179;28;20208;-73
2021/03/05 02:07:28;;;;;;;21.58;12.45;;;;;;;;;;5035913;28;20772;-72
2021/03/05 02:09:54;;;;;;;20.30;13.97;;;;;;;;;;5019797;28;20173;-71
2021/03/05 02:12:20;;;;;;;21.20;12.90;;;;;;;;;;5035645;28;20782;-71
2021/03/05 02:14:46;;;;;;;14.80;11.37;;;;;;;;;;5038097;28;20185;-72
2021/03/05 02:17:16;;;;;;;12.75;10.23;;;;;;;;;;5038554;28;20420;-74
2021/03/05 02:20:01;;;;;;;14.82;10.73;;;;;;;;;;5018012;28;20192;-72
2021/03/05 02:23:02;;;;;;;20.00;13.00;;;;;;;;;;5035767;28;20173;-71
2021/03/05 02:25:50;;;;;;;20.92;14.02;;;;;;;;;;4935516;29;20245;-72
2021/03/05 02:28:34;;;;;;;26.13;15.10;;;;;;;;;;5030318;28;20201;-72
2021/03/05 02:31:08;;;;;;;26.02;14.95;;;;;;;;;;5035819;28;20169;-72
2021/03/05 02:33:38;;;;;;;30.90;15.77;;;;;;;;;;5035423;28;20227;-73
2021/03/05 02:36:06;;;;;;;20.52;14.98;;;;;;;;;;5035313;28;20181;-72
2021/03/05 02:38:33;;;;;;;27.33;17.88;;;;;;;;;;5035709;28;20552;-72
2021/03/05 02:40:59;;;;;;;28.00;16.98;;;;;;;;;;5035219;28;20170;-71
2021/03/05 02:43:26;;;;;;;23.63;15.95;;;;;;;;;;5035289;28;20184;-72
2021/03/05 02:46:03;;;;;;;23.42;16.65;;;;;;;;;;5035029;28;20812;-72
2021/03/05 02:48:40;;;;;;;26.85;17.05;;;;;;;;;;5035332;28;20174;-72
2021/03/05 02:51:06;;;;;;;25.13;16.10;;;;;;;;;;5035059;28;20512;-72
2021/03/05 02:53:34;;;;;;;26.38;16.27;;;;;;;;;;5035145;28;20240;-72
2021/03/05 02:56:04;;;;;;;32.42;18.05;;;;;;;;;;5034210;28;20171;-73
2021/03/05 02:58:30;;;;;;;25.50;16.73;;;;;;;;;;5035279;28;20181;-72
2021/03/05 03:00:57;;;;;;;28.92;17.08;;;;;;;;;;5034707;28;20525;-72
2021/03/05 03:03:23;;;;;;;21.20;13.50;;;;;;;;;;5034933;28;20173;-72
2021/03/05 03:05:50;;;;;;;28.05;17.50;;;;;;;;;;5034593;28;20711;-71
2021/03/05 03:08:17;;;;;;;25.08;16.33;;;;;;;;;;5035107;28;20272;-71
2021/03/05 03:10:44;;;;;;;29.02;16.58;;;;;;;;;;5034436;28;20535;-72
2021/03/05 03:13:10;;;;;;;24.63;16.25;;;;;;;;;;5034461;28;20518;-74
2021/03/05 03:15:36;;;;;;;26.63;16.15;;;;;;;;;;5034587;28;20173;-73
2021/03/05 03:18:04;;;;;;;24.52;15.30;;;;;;;;;;5034384;28;20165;-72
2021/03/05 03:20:30;;;;;;;24.02;16.20;;;;;;;;;;5034330;28;20170;-72
2021/03/05 03:22:56;;;;;;;24.20;15.70;;;;;;;;;;5034531;28;20165;-71
2021/03/05 03:25:24;;;;;;;20.98;14.32;;;;;;;;;;5034300;28;20457;-73
2021/03/05 03:27:50;;;;;;;20.80;15.27;;;;;;;;;;5034518;28;20193;-73
2021/03/05 03:30:17;;;;;;;24.85;15.48;;;;;;;;;;5034273;28;20232;-71
2021/03/05 03:32:45;;;;;;;21.38;14.38;;;;;;;;;;5034354;28;20181;-72
2021/03/05 03:35:12;;;;;;;21.75;13.95;;;;;;;;;;5034063;28;20224;-72
2021/03/05 03:37:38;;;;;;;25.05;14.90;;;;;;;;;;5034137;28;20252;-72
2021/03/05 03:40:16;;;;;;;25.50;17.05;;;;;;;;;;5034174;28;20161;-72
2021/03/05 03:42:43;;;;;;;24.25;13.77;;;;;;;;;;5034209;28;20165;-72
2021/03/05 03:45:10;;;;;;;24.13;16.15;;;;;;;;;;5033804;28;20600;-73
2021/03/05 03:47:37;;;;;;;24.65;14.88;;;;;;;;;;5034360;28;20525;-72
2021/03/05 03:50:05;;;;;;;24.80;16.55;;;;;;;;;;5033886;28;20165;-72
2021/03/05 03:52:31;;;;;;;22.55;15.35;;;;;;;;;;5033573;28;20553;-72
2021/03/05 03:54:58;;;;;;;22.40;14.10;;;;;;;;;;5033589;28;20201;-72
2021/03/05 03:57:24;;;;;;;23.15;15.98;;;;;;;;;;5033759;28;20451;-73
2021/03/05 03:59:51;;;;;;;21.30;14.35;;;;;;;;;;5034189;28;20217;-73
2021/03/05 04:05:23;;;;;;;24.20;15.10;;;;;;;;;;5034310;28;20211;-79
2021/03/05 04:07:49;;;;;;;21.27;14.80;;;;;;;;;;5033743;28;20620;-74
2021/03/05 04:10:16;;;;;;;21.75;14.27;;;;;;;;;;5033540;28;20581;-74
2021/03/05 04:12:42;;;;;;;21.58;14.20;;;;;;;;;;5033816;28;20176;-73
2021/03/05 04:15:09;;;;;;;17.40;12.82;;;;;;;;;;5033341;28;20252;-74
2021/03/05 04:17:35;;;;;;;16.90;12.13;;;;;;;;;;5033482;28;20623;-73
2021/03/05 04:20:02;;;;;;;14.53;10.87;;;;;;;;;;5033449;28;20169;-72
2021/03/05 04:22:28;;;;;;;12.85;9.30;;;;;;;;;;5033328;28;20510;-75
2021/03/05 04:24:54;;;;;;;14.93;11.18;;;;;;;;;;5033404;28;20522;-73
2021/03/05 04:27:20;;;;;;;21.40;13.30;;;;;;;;;;5032990;28;20240;-74
2021/03/05 04:29:46;;;;;;;14.00;10.40;;;;;;;;;;5033127;28;20409;-71
2021/03/05 04:35:15;;;;;;;15.77;9.30;;;;;;;;;;5032605;28;20661;-72
2021/03/05 04:37:41;;;;;;;14.00;10.17;;;;;;;;;;5032936;28;20162;-72
2021/03/05 04:40:09;;;;;;;19.53;12.17;;;;;;;;;;5033341;28;20980;-72
2021/03/05 04:42:35;;;;;;;14.48;10.80;;;;;;;;;;5032789;28;20409;-72
2021/03/05 04:45:01;;;;;;;13.75;11.10;;;;;;;;;;5033263;28;20620;-71
2021/03/05 04:47:27;;;;;;;11.63;8.98;;;;;;;;;;5033028;28;20233;-72
2021/03/05 04:49:53;;;;;;;14.27;10.23;;;;;;;;;;5033001;28;20607;-75
2021/03/05 04:52:19;;;;;;;11.33;7.77;;;;;;;;;;5015071;28;20177;-76
2021/03/05 04:54:45;;;;;;;11.47;8.93;;;;;;;;;;5032829;28;20443;-74
2021/03/05 04:57:11;;;;;;;12.70;8.77;;;;;;;;;;5032420;28;20871;-76
2021/03/05 04:59:37;;;;;;;14.40;10.17;;;;;;;;;;5032778;28;20578;-78
2021/03/05 05:05:07;;;;;;;11.10;8.98;;;;;;;;;;5032655;28;20876;-72
2021/03/05 05:07:33;;;;;;;11.63;8.73;;;;;;;;;;5032956;28;20173;-75
2021/03/05 05:09:59;;;;;;;11.50;9.20;;;;;;;;;;5032563;28;20523;-72
2021/03/05 05:12:25;;;;;;;14.02;10.40;;;;;;;;;;5032225;28;20437;-72
2021/03/05 05:14:51;;;;;;;16.27;8.67;;;;;;;;;;5032406;28;20173;-72
2021/03/05 05:20:21;;;;;;;12.88;10.40;;;;;;;;;;5032558;28;20427;-73
2021/03/05 05:22:46;;;;;;;16.27;11.70;;;;;;;;;;5032435;28;20532;-73
2021/03/05 05:25:12;;;;;;;15.00;11.10;;;;;;;;;;5032760;28;20483;-73
2021/03/05 05:27:38;;;;;;;18.77;11.90;;;;;;;;;;5032340;28;20490;-73
2021/03/05 05:30:05;;;;;;;16.73;11.43;;;;;;;;;;5032667;28;20427;-74
2021/03/05 05:35:34;;;;;;;11.65;9.55;;;;;;;;;;5032306;28;20251;-72
2021/03/05 05:38:00;;;;;;;13.10;9.97;;;;;;;;;;5032394;28;20619;-72
2021/03/05 05:40:26;;;;;;;14.45;10.77;;;;;;;;;;5032275;28;20431;-73
2021/03/05 05:42:52;;;;;;;13.77;10.80;;;;;;;;;;5032506;28;20173;-72
2021/03/05 05:45:19;;;;;;;11.38;8.13;;;;;;;;;;5034179;28;20214;-75
2021/03/05 05:47:45;;;;;;;12.20;9.45;;;;;;;;;;5035679;28;20170;-76
2021/03/05 05:50:11;;;;;;;13.98;9.57;;;;;;;;;;5032863;28;20173;-76
2021/03/05 05:52:37;;;;;;;14.13;10.80;;;;;;;;;;5032482;28;20193;-76
2021/03/05 05:55:05;;;;;;;13.40;10.27;;;;;;;;;;5032326;28;20170;-76
2021/03/05 05:57:31;;;;;;;13.95;9.98;;;;;;;;;;5031987;28;20419;-74
2021/03/05 05:59:58;;;;;;;14.00;9.38;;;;;;;;;;5014514;28;20174;-75
2021/03/05 06:05:28;;;;;;;12.90;8.20;;;;;;;;;;5032262;28;20298;-73
2021/03/05 06:07:55;;;;;;;12.20;9.13;;;;;;;;;;5032198;28;20173;-76
2021/03/05 06:10:21;;;;;;;14.45;11.02;;;;;;;;;;5031661;28;20181;-73
2021/03/05 06:12:48;;;;;;;11.83;7.80;;;;;;;;;;5032317;28;20166;-77
2021/03/05 06:15:14;;;;;;;13.15;8.48;;;;;;;;;;5031939;28;20459;-77
2021/03/05 06:20:44;;;;;;;12.10;8.32;;;;;;;;;;5032164;28;20187;-83
2021/03/05 06:23:13;;;;;;;14.52;9.48;;;;;;;;;;5032202;28;20313;-74
2021/03/05 06:25:39;;;;;;;14.13;10.32;;;;;;;;;;5035084;28;20217;-85
2021/03/05 06:28:15;;;;;;;11.77;8.75;;;;;;;;;;5033786;28;20170;-74
2021/03/05 06:30:41;;;;;;;12.18;9.38;;;;;;;;;;5033066;28;20524;-74
2021/03/05 06:33:23;;;;;;;12.80;8.82;;;;;;;;;;5035169;28;20517;-78
2021/03/05 06:35:49;;;;;;;17.88;9.52;;;;;;;;;;5035130;28;20546;-77
2021/03/05 06:38:35;;;;;;;14.48;9.15;;;;;;;;;;5034169;28;20192;-75
2021/03/05 06:41:20;;;;;;;13.80;9.18;;;;;;;;;;5033996;28;20224;-77
2021/03/05 06:43:48;;;;;;;12.02;8.32;;;;;;;;;;5034513;28;20637;-76
2021/03/05 06:46:33;;;;;;;14.05;9.32;;;;;;;;;;5034594;28;20213;-77
2021/03/05 06:48:59;;;;;;;15.98;9.23;;;;;;;;;;5034270;28;20180;-77
2021/03/05 06:51:26;;;;;;;16.90;9.25;;;;;;;;;;5034582;28;20180;-74
2021/03/05 06:54:04;;;;;;;14.25;10.35;;;;;;;;;;5034171;28;20174;-75
2021/03/05 06:56:31;;;;;;;16.45;10.07;;;;;;;;;;5033807;28;20520;-74
2021/03/05 06:58:58;;;;;;;13.48;9.40;;;;;;;;;;5016368;28;20193;-77
2021/03/05 07:01:24;;;;;;;12.27;9.32;;;;;;;;;;5032756;28;20165;-72
2021/03/05 07:04:05;;;;;;;17.25;10.38;;;;;;;;;;5032290;28;20279;-71
2021/03/05 07:06:32;;;;;;;14.85;9.23;;;;;;;;;;5032328;28;20201;-73
2021/03/05 07:11:48;;;;;;;12.73;8.85;;;;;;;;;;4964621;23;20390;-72
2021/03/05 07:14:14;;;;;;;15.65;9.45;;;;;;;;;;4944765;28;20203;-74
2021/03/05 07:16:41;;;;;;;11.67;8.83;;;;;;;;;;4949181;28;20192;-73
2021/03/05 07:19:07;;;;;;;12.00;8.95;;;;;;;;;;4948196;28;20488;-71
2021/03/05 07:21:37;;;;;;;12.75;7.85;;;;;;;;;;4948474;28;20207;-73
2021/03/05 07:24:04;;;;;;;13.65;9.82;;;;;;;;;;4948741;28;20511;-74
2021/03/05 07:26:31;;;;;;;14.43;10.38;;;;;;;;;;4947761;28;20276;-75
2021/03/05 07:28:57;;;;;;;11.32;8.77;;;;;;;;;;4949550;28;20188;-74
2021/03/05 07:31:24;;;;;;;15.10;10.45;;;;;;;;;;4950419;28;20192;-72
2021/03/05 07:33:51;;;;;;;16.63;10.07;;;;;;;;;;4948668;28;20199;-73
2021/03/05 07:36:18;;;;;;;14.68;9.93;;;;;;;;;;4933779;28;20200;-76
2021/03/05 07:38:47;;;;;;;11.70;8.63;;;;;;;;;;4948472;28;20188;-73
2021/03/05 07:41:14;;;;;;;15.88;9.65;;;;;;;;;;4947636;28;20192;-75
2021/03/05 07:43:40;;;;;;;12.27;8.43;;;;;;;;;;4947877;28;20186;-75
2021/03/05 07:46:06;;;;;;;14.45;8.20;;;;;;;;;;4948268;28;20612;-73
2021/03/05 07:48:33;;;;;;;11.95;8.20;;;;;;;;;;4947654;28;20195;-77
2021/03/05 07:50:59;;;;;;;17.23;9.35;;;;;;;;;;4947941;28;20223;-74
2021/03/05 07:53:25;;;;;;;16.67;9.45;;;;;;;;;;4947855;28;20204;-73
2021/03/05 07:55:52;;;;;;;13.20;8.67;;;;;;;;;;4947535;28;20299;-76
2021/03/05 07:58:36;;;;;;;11.95;8.48;;;;;;;;;;4946049;28;20475;-73
2021/03/05 08:01:02;;;;;;;17.05;9.05;;;;;;;;;;4946993;28;20266;-73
2021/03/05 08:03:48;;;;;;;13.65;9.95;;;;;;;;;;4948006;28;20318;-75
2021/03/05 08:06:27;;;;;;;15.07;10.10;;;;;;;;;;4947866;28;20224;-72
2021/03/05 08:09:06;;;;;;;14.30;10.57;;;;;;;;;;4948126;28;20262;-73
2021/03/05 08:11:35;;;;;;;14.10;10.05;;;;;;;;;;4947122;28;20260;-73
2021/03/05 08:14:22;;;;;;;14.90;9.07;;;;;;;;;;4948099;28;20664;-76
2021/03/05 08:16:48;;;;;;;15.05;10.07;;;;;;;;;;4949107;28;20186;-72
2021/03/05 08:19:15;;;;;;;15.70;10.27;;;;;;;;;;4948878;28;20189;-71
2021/03/05 08:22:04;;;;;;;15.55;9.73;;;;;;;;;;4944928;28;20221;-73
2021/03/05 08:24:43;;;;;;;12.85;9.25;;;;;;;;;;4937925;28;20527;-73
2021/03/05 08:27:08;;;;;;;20.08;11.45;;;;;;;;;;4947640;28;20203;-75
2021/03/05 08:29:53;;;;;;;15.00;9.80;;;;;;;;;;4947518;28;21022;-73
2021/03/05 08:32:34;;;;;;;14.82;9.18;;;;;;;;;;4948829;28;20440;-75
2021/03/05 08:35:10;;;;;;;14.60;10.00;;;;;;;;;;4947989;28;20186;-74
2021/03/05 08:37:37;;;;;;;15.70;9.80;;;;;;;;;;4947361;28;20196;-77
2021/03/05 08:40:21;;;;;;;16.15;10.07;;;;;;;;;;4946944;28;20279;-74
2021/03/05 08:42:48;;;;;;;13.00;9.85;;;;;;;;;;4946097;28;20269;-79
2021/03/05 08:45:15;;;;;;;15.05;10.45;;;;;;;;;;4950622;28;20248;-78
2021/03/05 08:47:43;;;;;;;15.10;9.10;;;;;;;;;;4947657;28;20301;-79
2021/03/05 08:50:09;;;;;;;17.55;9.82;;;;;;;;;;4947898;28;20224;-75
2021/03/05 08:52:36;;;;;;;15.70;9.05;;;;;;;;;;4944997;28;20205;-76
2021/03/05 08:55:06;;;;;;;15.18;8.70;;;;;;;;;;4947156;28;20211;-74
2021/03/05 08:57:42;;;;;;;23.63;11.05;;;;;;;;;;4946134;28;20181;-77
2021/03/05 09:00:16;;;;;;;14.15;8.70;;;;;;;;;;4948100;28;20197;-75
2021/03/05 09:02:46;;;;;;;16.30;10.25;;;;;;;;;;4947048;28;20635;-77
2021/03/05 09:05:25;;;;;;;16.10;9.73;;;;;;;;;;4947831;28;20709;-78
2021/03/05 09:07:56;;;;;;;16.27;9.68;;;;;;;;;;4947740;28;20189;-76
2021/03/05 09:10:41;;;;;;;15.55;9.27;;;;;;;;;;4929868;28;20186;-79
2021/03/05 09:13:07;;;;;;;15.38;9.20;;;;;;;;;;4948886;28;20198;-76
2021/03/05 09:15:42;;;;;;;13.80;9.15;;;;;;;;;;4951142;28;20190;-76
2021/03/05 09:18:09;;;;;;;13.65;8.38;;;;;;;;;;4954364;28;20233;-78
2021/03/05 09:20:44;;;;;;;12.85;8.88;;;;;;;;;;4949897;28;20282;-78
2021/03/05 09:23:17;;;;;;;13.93;8.98;;;;;;;;;;4948479;28;20514;-72
2021/03/05 09:25:57;;;;;;;12.70;8.82;;;;;;;;;;4946815;28;20217;-77
2021/03/05 09:28:49;;;;;;;13.75;7.95;;;;;;;;;;4947035;28;20192;-79
2021/03/05 09:31:17;;;;;;;12.80;8.30;;;;;;;;;;4946889;28;20281;-78
2021/03/05 09:33:46;;;;;;;12.30;8.55;;;;;;;;;;4947216;28;20539;-75
2021/03/05 09:36:17;;;;;;;13.90;8.38;;;;;;;;;;4946119;28;20198;-74
2021/03/05 09:38:47;;;;;;;15.68;9.13;;;;;;;;;;4949694;28;20198;-76
2021/03/05 09:41:23;;;;;;;11.60;7.57;;;;;;;;;;4949144;28;20193;-78
2021/03/05 09:43:58;;;;;;;11.90;8.10;;;;;;;;;;4949423;28;20184;-77
2021/03/05 09:46:29;;;;;;;11.10;7.32;;;;;;;;;;4948885;28;20526;-75
2021/03/05 09:48:56;;;;;;;13.77;8.32;;;;;;;;;;4949325;28;20500;-77
2021/03/05 09:51:22;;;;;;;12.95;8.15;;;;;;;;;;4949087;28;20212;-77
2021/03/05 09:53:53;;;;;;;15.40;8.38;;;;;;;;;;4950229;28;20200;-76
2021/03/05 09:56:20;;;;;;;13.07;8.55;;;;;;;;;;4949734;28;20224;-73
2021/03/05 09:59:00;;;;;;;12.18;7.68;;;;;;;;;;4951676;28;20512;-81
2021/03/05 10:01:27;;;;;;;14.93;8.98;;;;;;;;;;4949233;28;20224;-75
2021/03/05 10:03:54;;;;;;;12.55;8.48;;;;;;;;;;4947437;28;20261;-76
2021/03/05 10:06:20;;;;;;;14.18;8.45;;;;;;;;;;4950448;28;20731;-80
2021/03/05 10:08:46;;;;;;;15.20;9.00;;;;;;;;;;4950808;28;20193;-83
2021/03/05 10:11:13;;;;;;;13.68;9.45;;;;;;;;;;4946153;28;20310;-75
2021/03/05 10:13:54;;;;;;;12.98;8.77;;;;;;;;;;4946923;28;20198;-79
2021/03/05 10:16:21;;;;;;;9.13;7.03;;;;;;;;;;4947750;28;20284;-80
2021/03/05 10:18:48;;;;;;;13.18;7.90;;;;;;;;;;4945782;28;20190;-78
2021/03/05 10:21:15;;;;;;;13.80;8.48;;;;;;;;;;4945119;28;20202;-73
2021/03/05 10:23:42;;;;;;;9.23;7.75;;;;;;;;;;4944709;28;20195;-77
2021/03/05 10:26:18;;;;;;;12.57;8.00;;;;;;;;;;4945926;28;20249;-81
2021/03/05 10:28:45;;;;;;;14.57;8.40;;;;;;;;;;4944995;28;20193;-78
2021/03/05 10:31:11;;;;;;;14.07;9.13;;;;;;;;;;4949785;28;20231;-79
2021/03/05 10:33:42;;;;;;;13.23;9.50;;;;;;;;;;4950521;28;20310;-79
2021/03/05 10:36:09;;;;;;;11.75;7.72;;;;;;;;;;4950227;28;20230;-79
2021/03/05 10:38:36;;;;;;;12.38;8.95;;;;;;;;;;4946072;28;20610;-79
2021/03/05 10:41:03;;;;;;;13.15;7.72;;;;;;;;;;4943358;28;20241;-77
2021/03/05 10:43:29;;;;;;;12.57;8.80;;;;;;;;;;4950068;28;20197;-80
2021/03/05 10:45:55;;;;;;;12.98;8.82;;;;;;;;;;4949732;28;20206;-75
2021/03/05 10:48:21;;;;;;;12.88;7.97;;;;;;;;;;4948367;28;20199;-75
2021/03/05 10:50:47;;;;;;;11.80;8.80;;;;;;;;;;4950235;28;20614;-80
2021/03/05 10:53:13;;;;;;;11.88;7.50;;;;;;;;;;4949744;28;20688;-73
2021/03/05 10:55:39;;;;;;;13.68;9.18;;;;;;;;;;4950595;28;20187;-77
2021/03/05 10:58:05;;;;;;;11.90;8.67;;;;;;;;;;4949528;28;20293;-79
2021/03/05 11:00:31;;;;;;;10.43;7.75;;;;;;;;;;4950269;28;20453;-80
2021/03/05 11:02:57;;;;;;;16.88;7.60;;;;;;;;;;4959497;28;20194;-80
2021/03/05 11:05:23;;;;;;;11.23;7.80;;;;;;;;;;4958266;28;20218;-77
2021/03/05 11:07:51;;;;;;;9.57;7.07;;;;;;;;;;4948533;28;20465;-80
2021/03/05 11:10:17;;;;;;;9.73;6.53;;;;;;;;;;4932769;28;20441;-76
2021/03/05 11:12:43;;;;;;;11.32;8.75;;;;;;;;;;4949160;28;20589;-80
2021/03/05 11:15:09;;;;;;;10.30;6.53;;;;;;;;;;4950430;28;20202;-78
2021/03/05 11:17:35;;;;;;;11.95;8.18;;;;;;;;;;4947482;28;20453;-75
2021/03/05 11:20:01;;;;;;;13.43;8.70;;;;;;;;;;4932036;28;20191;-73
2021/03/05 11:22:27;;;;;;;11.20;7.77;;;;;;;;;;4950540;28;20464;-76
2021/03/05 11:24:53;;;;;;;13.43;8.93;;;;;;;;;;4949746;28;20538;-78
2021/03/05 11:27:19;;;;;;;13.50;8.30;;;;;;;;;;4948599;28;20459;-79
2021/03/05 11:29:45;;;;;;;11.40;8.37;;;;;;;;;;4950234;28;20454;-77
2021/03/05 11:32:11;;;;;;;11.50;7.23;;;;;;;;;;4952391;28;20465;-73
2021/03/05 11:34:37;;;;;;;9.98;8.27;;;;;;;;;;4950204;28;20795;-77
2021/03/05 11:37:03;;;;;;;13.50;7.40;;;;;;;;;;4952718;28;20190;-80
2021/03/05 11:39:29;;;;;;;12.25;8.60;;;;;;;;;;4949093;28;20446;-78
2021/03/05 11:41:55;;;;;;;12.40;8.43;;;;;;;;;;4952113;28;20274;-75
2021/03/05 11:44:21;;;;;;;11.82;7.95;;;;;;;;;;4951551;28;20454;-79
2021/03/05 11:46:47;;;;;;;11.30;8.13;;;;;;;;;;4951551;28;20302;-76
2021/03/05 11:49:13;;;;;;;14.02;7.80;;;;;;;;;;4950993;28;20546;-78
2021/03/05 11:51:39;;;;;;;14.43;7.18;;;;;;;;;;4946191;28;20207;-79
2021/03/05 11:54:06;;;;;;;10.32;7.38;;;;;;;;;;4943245;28;20180;-77
2021/03/05 11:56:32;;;;;;;10.68;7.75;;;;;;;;;;4946213;28;20191;-73
2021/03/05 11:58:59;;;;;;;8.85;6.82;;;;;;;;;;4940413;28;20265;-77
2021/03/05 12:01:25;;;;;;;10.63;7.95;;;;;;;;;;4945200;28;20222;-77
2021/03/05 12:03:52;;;;;;;9.67;7.20;;;;;;;;;;4947421;28;20191;-74
2021/03/05 12:06:18;;;;;;;9.82;7.15;;;;;;;;;;4922819;28;20494;-72
2021/03/05 12:08:44;;;;;;;15.02;9.10;;;;;;;;;;4941699;28;20265;-79
2021/03/05 12:11:10;;;;;;;10.85;8.27;;;;;;;;;;4939305;28;20257;-73
2021/03/05 12:13:36;;;;;;;14.07;9.20;;;;;;;;;;4936473;28;20218;-74
2021/03/05 12:16:02;;;;;;;14.73;8.30;;;;;;;;;;4936561;28;20454;-75
2021/03/05 12:18:28;;;;;;;14.43;9.30;;;;;;;;;;4938864;28;20456;-73
2021/03/05 12:20:53;;;;;;;10.90;7.97;;;;;;;;;;4938776;28;20449;-75
2021/03/05 12:23:19;;;;;;;13.70;8.60;;;;;;;;;;4941972;28;20866;-75
2021/03/05 12:25:46;;;;;;;15.33;9.10;;;;;;;;;;4919802;28;20505;-78
2021/03/05 12:28:12;;;;;;;12.93;8.35;;;;;;;;;;4938842;28;20454;-77
2021/03/05 12:30:38;;;;;;;10.68;7.28;;;;;;;;;;4934874;28;20207;-74
2021/03/05 12:33:04;;;;;;;10.00;7.37;;;;;;;;;;4938166;28;20400;-80
2021/03/05 12:35:30;;;;;;;9.15;6.40;;;;;;;;;;4937068;28;20512;-79
2021/03/05 12:37:56;;;;;;;11.70;7.73;;;;;;;;;;4938548;28;20202;-81
2021/03/05 12:40:22;;;;;;;11.70;8.57;;;;;;;;;;4939396;28;20485;-75
2021/03/05 12:42:48;;;;;;;12.55;7.35;;;;;;;;;;4936248;28;20457;-75
2021/03/05 12:45:14;;;;;;;11.52;8.55;;;;;;;;;;4938691;28;20843;-75
2021/03/05 12:47:40;;;;;;;18.42;9.77;;;;;;;;;;4923701;28;20814;-77
2021/03/05 12:50:07;;;;;;;12.65;8.60;;;;;;;;;;4943087;28;20935;-76
2021/03/05 12:52:33;;;;;;;13.88;10.30;;;;;;;;;;4948792;28;20294;-73
2021/03/05 12:54:59;;;;;;;9.25;6.40;;;;;;;;;;4949836;28;20223;-78
2021/03/05 12:57:25;;;;;;;14.70;6.83;;;;;;;;;;4946597;28;20496;-79
2021/03/05 12:59:52;;;;;;;11.40;7.85;;;;;;;;;;4947469;28;20873;-80
2021/03/05 13:02:18;;;;;;;12.40;8.65;;;;;;;;;;4944807;28;20206;-75
2021/03/05 13:04:44;;;;;;;13.63;8.00;;;;;;;;;;4946096;28;20249;-81
2021/03/05 13:07:11;;;;;;;12.07;7.38;;;;;;;;;;4943521;28;20482;-78
2021/03/05 13:09:38;;;;;;;12.90;8.20;;;;;;;;;;4943845;28;20519;-81
2021/03/05 13:12:04;;;;;;;12.07;8.57;;;;;;;;;;4943467;28;20230;-82
2021/03/05 13:14:30;;;;;;;13.65;8.80;;;;;;;;;;4950597;28;20580;-83
2021/03/05 13:16:57;;;;;;;10.57;7.82;;;;;;;;;;4953126;28;20663;-75
2021/03/05 13:19:23;;;;;;;13.15;8.68;;;;;;;;;;4951388;28;20265;-75
2021/03/05 13:21:48;;;;;;;10.13;7.68;;;;;;;;;;4951541;28;20187;-74
2021/03/05 13:24:15;;;;;;;14.27;9.03;;;;;;;;;;4950756;28;20277;-73
2021/03/05 13:26:43;;;;;;;13.15;8.50;;;;;;;;;;4951201;28;20479;-76
2021/03/05 13:29:09;;;;;;;19.13;8.70;;;;;;;;;;4949248;28;20179;-74
2021/03/05 13:31:35;;;;;;;13.23;9.25;;;;;;;;;;4951821;28;20525;-76
2021/03/05 13:34:01;;;;;;;11.00;7.68;;;;;;;;;;4951113;28;20201;-75
2021/03/05 13:36:27;;;;;;;12.73;9.20;;;;;;;;;;4951364;28;20654;-75
2021/03/05 13:38:54;;;;;;;16.63;9.15;;;;;;;;;;4951302;28;20493;-78
2021/03/05 13:41:20;;;;;;;12.68;9.10;;;;;;;;;;4954589;28;20203;-76
2021/03/05 13:43:46;;;;;;;12.65;9.25;;;;;;;;;;4955386;28;20187;-79
2021/03/05 13:46:12;;;;;;;12.67;7.60;;;;;;;;;;4955050;28;20358;-78
2021/03/05 13:48:41;;;;;;;11.60;7.93;;;;;;;;;;4955998;28;20446;-81
2021/03/05 13:51:07;;;;;;;15.73;8.70;;;;;;;;;;4955054;28;20447;-79
2021/03/05 13:53:33;;;;;;;12.37;9.57;;;;;;;;;;4955434;28;20210;-80
2021/03/05 13:55:59;;;;;;;12.00;8.07;;;;;;;;;;4956167;28;20454;-77
2021/03/05 13:58:25;;;;;;;10.30;7.40;;;;;;;;;;4955010;28;20529;-75
2021/03/05 14:00:51;;;;;;;10.50;7.67;;;;;;;;;;4956115;28;20534;-76
2021/03/05 14:03:17;;;;;;;15.05;8.35;;;;;;;;;;4955279;28;20839;-78
2021/03/05 14:05:43;;;;;;;12.03;7.93;;;;;;;;;;4952657;28;20202;-77
2021/03/05 14:08:09;;;;;;;9.00;7.30;;;;;;;;;;4954310;28;20488;-76
2021/03/05 14:10:35;;;;;;;15.75;8.35;;;;;;;;;;4936961;28;20440;-75
2021/03/05 14:13:01;;;;;;;13.50;8.90;;;;;;;;;;4954515;28;20586;-74
2021/03/05 14:15:27;;;;;;;12.67;8.00;;;;;;;;;;4953414;28;20479;-74
2021/03/05 14:17:53;;;;;;;11.07;8.87;;;;;;;;;;4954565;28;20892;-72
2021/03/05 14:20:19;;;;;;;12.37;8.30;;;;;;;;;;4954794;28;20449;-80
2021/03/05 14:22:45;;;;;;;14.40;8.70;;;;;;;;;;4954131;28;20462;-79
2021/03/05 14:25:11;;;;;;;17.73;8.27;;;;;;;;;;4936593;28;20550;-78
2021/03/05 14:27:37;;;;;;;12.25;8.32;;;;;;;;;;4953846;28;20779;-76
2021/03/05 14:30:04;;;;;;;10.57;7.93;;;;;;;;;;4953978;28;20761;-79
2021/03/05 14:32:30;;;;;;;13.05;8.95;;;;;;;;;;4954832;28;20192;-78
2021/03/05 14:34:56;;;;;;;12.85;8.23;;;;;;;;;;4956650;28;20183;-80
2021/03/05 14:37:22;;;;;;;12.20;8.95;;;;;;;;;;4954292;28;20184;-76
2021/03/05 14:39:49;;;;;;;11.63;8.43;;;;;;;;;;4956118;28;20187;-72
2021/03/05 14:42:15;;;;;;;14.38;7.65;;;;;;;;;;4957965;28;20191;-74
2021/03/05 14:44:41;;;;;;;14.45;9.32;;;;;;;;;;4956608;28;20179;-76
2021/03/05 14:47:07;;;;;;;11.90;8.27;;;;;;;;;;4953444;28;20245;-78
2021/03/05 14:49:34;;;;;;;14.55;9.20;;;;;;;;;;4935926;28;20442;-72
2021/03/05 14:52:00;;;;;;;17.70;9.75;;;;;;;;;;4950400;28;20273;-75
2021/03/05 14:54:26;;;;;;;15.20;9.17;;;;;;;;;;4952298;28;20271;-74
2021/03/05 14:56:52;;;;;;;12.77;9.57;;;;;;;;;;4948831;28;20473;-76
2021/03/05 14:59:18;;;;;;;12.73;8.50;;;;;;;;;;4952572;28;20452;-73
2021/03/05 15:01:44;;;;;;;12.90;8.90;;;;;;;;;;4951982;28;20457;-77
2021/03/05 15:04:10;;;;;;;12.63;7.93;;;;;;;;;;4936965;28;20458;-79
2021/03/05 15:06:36;;;;;;;11.33;7.77;;;;;;;;;;4953187;28;20274;-74
2021/03/05 15:09:02;;;;;;;8.87;6.53;;;;;;;;;;4932500;28;20533;-78
2021/03/05 15:11:28;;;;;;;10.85;7.45;;;;;;;;;;4951178;28;20505;-77
2021/03/05 15:13:54;;;;;;;10.20;7.80;;;;;;;;;;4949896;28;20965;-80
2021/03/05 15:16:20;;;;;;;8.83;7.30;;;;;;;;;;4949688;28;20537;-77
2021/03/05 15:18:46;;;;;;;9.43;7.37;;;;;;;;;;4949490;28;20450;-75